KSDB

Sandberg Airport

Sandberg, California, USA
METAR KSDB 160053Z AUTO 04007KT 10SM CLR 10/M06 A3017 RMK AO2 SLP194 T01001056
Observed Flight Rules
Dec-16 @ 00:53 UTC (23 minutes ago) Visual Flight Rules
Wind Visibility Clouds
40° at 7 knots 10 miles
  • Clear skies
Temperatures Readings
Current 10°C / 50°F
Dewpoint -6°C / 21°F
Humidity 32%
Altimeter 30.17" Hg
Pressure 1019.4 hPa
Elevation 1377
METAR KSDB 160053Z AUTO 04007KT 10SM CLR 10/M06 A3017 RMK AO2 SLP194 T01001056
Observed Flight Rules
Dec-16 @ 00:53 UTC
(23 minutes ago)
VFR
Wind Visibility
40° at 7 knots 10 miles
Clouds
  • Clear skies
Temperature Dewpoint
10°C / 50°F -6°C / 21°F
Humidity Altimeter Pressure
32% 30.17" Hg 1019.4 hPa